createdAt,value
2022-07-27T00:00:49.996Z,99.90
2022-07-27T00:03:16.619Z,99.90
2022-07-27T00:05:43.597Z,99.90
2022-07-27T00:08:10.338Z,99.90
2022-07-27T00:10:37.522Z,99.90
2022-07-27T00:13:06.260Z,99.90
2022-07-27T00:15:34.522Z,99.90
2022-07-27T00:18:01.194Z,99.90
2022-07-27T00:20:28.801Z,99.90
2022-07-27T00:22:55.707Z,99.90
2022-07-27T00:25:23.115Z,99.90
2022-07-27T00:27:49.866Z,99.90
2022-07-27T00:30:16.862Z,99.90
2022-07-27T00:32:43.578Z,99.90
2022-07-27T00:35:11.088Z,99.90
2022-07-27T00:37:37.889Z,99.90
2022-07-27T00:40:06.155Z,99.90
2022-07-27T00:42:32.956Z,99.90
2022-07-27T00:44:59.573Z,99.90
2022-07-27T00:47:27.198Z,99.90
2022-07-27T00:49:54.289Z,99.90
2022-07-27T00:52:22.562Z,99.90
2022-07-27T00:54:49.364Z,99.90
2022-07-27T00:57:16.442Z,99.90
2022-07-27T00:59:43.389Z,99.90
2022-07-27T01:02:11.169Z,99.90
2022-07-27T01:04:39.524Z,99.90
2022-07-27T01:07:07.047Z,99.90
2022-07-27T01:09:56.389Z,99.90
2022-07-27T01:12:25.108Z,99.90
2022-07-27T01:14:52.882Z,99.90
2022-07-27T01:17:19.775Z,99.90
2022-07-27T01:19:46.707Z,99.90
2022-07-27T01:22:13.443Z,99.90
2022-07-27T01:24:40.105Z,99.90
2022-07-27T01:27:07.552Z,99.90
2022-07-27T01:29:35.838Z,99.90
2022-07-27T01:32:03.192Z,99.90
2022-07-27T01:34:30.569Z,99.90
2022-07-27T01:36:57.210Z,99.90
2022-07-27T01:39:23.871Z,99.90
2022-07-27T01:41:50.471Z,99.90
2022-07-27T01:44:17.126Z,99.90
2022-07-27T01:46:43.858Z,99.90
2022-07-27T01:49:10.879Z,99.90
2022-07-27T01:51:37.751Z,99.90
2022-07-27T01:54:04.745Z,99.90
2022-07-27T01:56:31.394Z,99.90
2022-07-27T01:58:58.922Z,99.90
2022-07-27T02:01:25.799Z,99.90
2022-07-27T02:03:52.474Z,99.90
2022-07-27T02:06:19.156Z,99.90
2022-07-27T02:08:45.748Z,99.90
2022-07-27T02:11:31.101Z,99.90
2022-07-27T02:13:57.723Z,99.90
2022-07-27T02:16:24.528Z,99.90
2022-07-27T02:18:51.311Z,99.90
2022-07-27T02:21:18.149Z,99.90
2022-07-27T02:23:46.940Z,99.90
2022-07-27T02:26:13.642Z,99.90
2022-07-27T02:28:40.221Z,99.90
2022-07-27T02:31:06.825Z,99.90
2022-07-27T02:33:33.897Z,99.90
2022-07-27T02:36:00.744Z,99.90
2022-07-27T02:38:27.447Z,99.90
2022-07-27T02:40:54.134Z,99.90
2022-07-27T02:43:20.781Z,99.90
2022-07-27T02:45:48.333Z,99.90
2022-07-27T02:48:15.047Z,99.90
2022-07-27T02:50:41.635Z,99.90
2022-07-27T02:53:08.284Z,99.90
2022-07-27T02:55:34.934Z,99.90
2022-07-27T02:58:01.696Z,99.90
2022-07-27T03:00:28.434Z,99.90
2022-07-27T03:02:55.093Z,99.90
2022-07-27T03:05:21.698Z,99.90
2022-07-27T03:07:48.355Z,99.90
2022-07-27T03:10:14.963Z,99.90
2022-07-27T03:12:43.153Z,99.90
2022-07-27T03:15:10.355Z,99.90
2022-07-27T03:17:37.190Z,99.90
2022-07-27T03:20:04.062Z,99.90
2022-07-27T03:22:33.273Z,99.90
2022-07-27T03:25:00.689Z,99.90
2022-07-27T03:27:28.141Z,99.90
2022-07-27T03:29:55.367Z,99.90
2022-07-27T03:32:22.060Z,99.90
2022-07-27T03:34:48.906Z,99.90
2022-07-27T03:37:16.832Z,99.90
2022-07-27T03:39:43.464Z,99.90
2022-07-27T03:42:10.130Z,99.90
2022-07-27T03:44:36.782Z,99.90
2022-07-27T03:47:03.380Z,99.90
2022-07-27T03:49:30.025Z,99.90
2022-07-27T03:51:56.684Z,99.90
2022-07-27T03:54:23.269Z,99.90
2022-07-27T03:56:49.845Z,99.90
2022-07-27T03:59:16.512Z,99.90
2022-07-27T04:01:43.283Z,99.90
2022-07-27T04:04:10.149Z,99.90
2022-07-27T04:06:36.763Z,99.90
2022-07-27T04:09:08.789Z,99.90
2022-07-27T04:11:37.815Z,99.90
2022-07-27T04:14:17.302Z,99.90
2022-07-27T04:16:43.969Z,99.90
2022-07-27T04:19:10.897Z,99.90
2022-07-27T04:21:37.895Z,99.90
2022-07-27T04:24:05.035Z,99.90
2022-07-27T04:26:31.685Z,99.90
2022-07-27T04:28:58.508Z,99.90
2022-07-27T04:31:25.480Z,99.90
2022-07-27T04:33:52.090Z,99.90
2022-07-27T04:36:18.734Z,99.90
2022-07-27T04:38:45.682Z,99.90
2022-07-27T04:41:13.013Z,99.90
2022-07-27T04:43:39.712Z,99.90
2022-07-27T04:46:08.481Z,99.90
2022-07-27T04:48:38.556Z,99.90
2022-07-27T04:51:08.026Z,99.90
2022-07-27T04:53:36.728Z,99.90
2022-07-27T04:56:20.426Z,99.90
2022-07-27T04:58:47.668Z,99.90
2022-07-27T05:01:14.375Z,99.90
2022-07-27T05:03:42.961Z,99.90
2022-07-27T05:06:09.731Z,99.90
2022-07-27T05:08:36.402Z,99.90
2022-07-27T05:11:03.006Z,99.90
2022-07-27T05:13:29.589Z,99.90
2022-07-27T05:15:56.204Z,99.90
2022-07-27T05:18:23.575Z,99.90
2022-07-27T05:20:50.469Z,99.90
2022-07-27T05:23:17.649Z,99.90
2022-07-27T05:25:44.350Z,99.90
2022-07-27T05:28:14.286Z,99.90
2022-07-27T05:30:41.276Z,99.90
2022-07-27T05:33:07.965Z,99.90
2022-07-27T05:35:34.709Z,99.90
2022-07-27T05:38:01.294Z,99.90
2022-07-27T05:40:28.251Z,99.90
2022-07-27T05:42:55.357Z,99.90
2022-07-27T05:45:22.109Z,99.90
2022-07-27T05:47:48.975Z,99.90
2022-07-27T05:50:17.673Z,99.90
2022-07-27T05:52:44.736Z,99.90
2022-07-27T05:55:12.352Z,99.90
2022-07-27T05:57:41.046Z,99.90
2022-07-27T06:00:08.921Z,99.90
2022-07-27T06:02:35.734Z,99.90
2022-07-27T06:05:02.651Z,99.90
2022-07-27T06:07:49.415Z,99.90
2022-07-27T06:10:17.013Z,99.90
2022-07-27T06:12:45.471Z,99.90
2022-07-27T06:15:14.355Z,99.90
2022-07-27T06:17:41.000Z,99.90
2022-07-27T06:20:09.094Z,99.90
2022-07-27T06:22:57.071Z,99.90
2022-07-27T06:25:34.515Z,99.90
2022-07-27T06:28:03.412Z,99.90
2022-07-27T06:30:30.058Z,99.90
2022-07-27T06:32:57.851Z,99.90
2022-07-27T06:35:25.778Z,99.90
2022-07-27T06:37:52.778Z,99.90
2022-07-27T06:40:20.487Z,99.90
2022-07-27T06:42:48.356Z,99.90
2022-07-27T06:45:15.037Z,99.90
2022-07-27T06:47:49.022Z,99.90
2022-07-27T06:50:18.371Z,99.90
2022-07-27T06:52:45.247Z,99.90
2022-07-27T06:55:12.279Z,99.90
2022-07-27T06:57:39.033Z,99.90
2022-07-27T07:00:06.750Z,99.90
2022-07-27T07:02:33.499Z,99.90
2022-07-27T07:05:00.124Z,99.90
2022-07-27T07:07:26.966Z,99.90
2022-07-27T07:09:53.566Z,99.90
2022-07-27T07:12:20.166Z,99.90
2022-07-27T07:14:46.783Z,99.90
2022-07-27T07:17:13.434Z,99.90
2022-07-27T07:19:40.038Z,99.90
2022-07-27T07:22:06.681Z,99.90
2022-07-27T07:24:33.338Z,99.90
2022-07-27T07:26:59.941Z,99.90
2022-07-27T07:29:26.535Z,99.90
2022-07-27T07:31:53.792Z,95.70
2022-07-27T07:34:20.717Z,91.20
2022-07-27T07:36:48.071Z,86.80
2022-07-27T07:39:15.197Z,82.90
2022-07-27T07:41:42.044Z,79.20
2022-07-27T07:44:09.947Z,76.70
2022-07-27T07:46:36.893Z,74.10
2022-07-27T07:49:04.784Z,71.10
2022-07-27T07:51:32.090Z,70.50
2022-07-27T07:53:59.010Z,68.40
2022-07-27T07:56:25.626Z,71.10
2022-07-27T07:58:52.234Z,70.30
2022-07-27T08:01:18.981Z,70.10
2022-07-27T08:03:50.655Z,69.50
2022-07-27T08:06:18.127Z,68.10
2022-07-27T08:08:44.952Z,69.30
2022-07-27T08:11:11.587Z,71.40
2022-07-27T08:13:38.165Z,74.80
2022-07-27T08:16:05.282Z,78.70
2022-07-27T08:18:32.156Z,82.40
2022-07-27T08:20:58.958Z,86.10
2022-07-27T08:23:26.933Z,89.20
2022-07-27T08:25:54.098Z,91.50
2022-07-27T08:28:20.833Z,92.90
2022-07-27T08:30:47.933Z,94.30
2022-07-27T08:33:16.774Z,95.70
2022-07-27T08:35:44.850Z,96.90
2022-07-27T08:38:11.747Z,96.80
2022-07-27T08:40:43.461Z,96.30
2022-07-27T08:43:12.986Z,95.40
2022-07-27T08:45:41.514Z,94.40
2022-07-27T08:48:13.505Z,93.70
2022-07-27T08:50:42.574Z,92.70
2022-07-27T08:53:12.647Z,93.70
2022-07-27T08:55:42.158Z,86.70
2022-07-27T08:58:10.714Z,82.90
2022-07-27T09:00:40.506Z,78.50
2022-07-27T09:03:07.272Z,72.00
2022-07-27T09:05:40.804Z,70.70
2022-07-27T09:08:12.684Z,67.10
2022-07-27T09:10:39.583Z,67.00
2022-07-27T09:13:21.558Z,66.00
2022-07-27T09:18:41.383Z,64.70
2022-07-27T09:21:14.822Z,63.20
2022-07-27T09:23:50.138Z,63.40
2022-07-27T09:26:33.901Z,65.80
2022-07-27T09:29:13.148Z,61.20
2022-07-27T09:31:49.088Z,61.90
2022-07-27T09:34:37.362Z,62.90
2022-07-27T09:37:06.319Z,61.50
2022-07-27T09:39:32.985Z,61.70
2022-07-27T09:42:02.341Z,63.40
2022-07-27T09:44:42.489Z,64.40
2022-07-27T09:47:20.604Z,68.90
2022-07-27T09:49:47.190Z,71.00
2022-07-27T09:52:26.414Z,71.30
2022-07-27T09:54:53.081Z,74.70
2022-07-27T09:57:19.879Z,73.40
2022-07-27T09:59:46.870Z,74.50
2022-07-27T10:02:14.923Z,75.10
2022-07-27T10:04:41.811Z,76.50
2022-07-27T10:07:13.193Z,77.30
2022-07-27T10:09:40.872Z,77.70
2022-07-27T10:12:08.199Z,81.00
2022-07-27T10:14:35.486Z,80.50
2022-07-27T10:17:03.145Z,80.20
2022-07-27T10:19:39.723Z,79.10
2022-07-27T10:22:06.344Z,79.30
2022-07-27T10:24:37.661Z,75.10
2022-07-27T10:27:29.952Z,75.40
2022-07-27T10:29:57.395Z,73.20
2022-07-27T10:32:32.711Z,72.20
2022-07-27T10:35:01.262Z,73.20
2022-07-27T10:37:31.212Z,74.60
2022-07-27T10:40:22.470Z,75.80
2022-07-27T10:42:54.511Z,77.40
2022-07-27T10:45:22.096Z,79.30
2022-07-27T10:47:51.191Z,80.00
2022-07-27T10:50:17.934Z,84.00
2022-07-27T10:52:46.042Z,82.80
2022-07-27T10:55:35.164Z,79.50
2022-07-27T10:58:11.049Z,77.60
2022-07-27T11:00:54.551Z,76.30
2022-07-27T11:03:28.906Z,76.00
2022-07-27T11:06:08.944Z,76.50
2022-07-27T11:09:01.710Z,77.40
2022-07-27T11:11:37.634Z,79.90
2022-07-27T11:14:04.252Z,79.80
2022-07-27T11:16:31.433Z,80.20
2022-07-27T11:19:01.507Z,80.20
2022-07-27T11:21:30.025Z,81.30
2022-07-27T11:23:59.382Z,79.10
2022-07-27T11:26:29.697Z,75.30
2022-07-27T11:28:56.656Z,75.00
2022-07-27T11:31:54.703Z,73.80
2022-07-27T11:34:11.592Z,71.90
2022-07-27T11:36:42.054Z,67.70
2022-07-27T11:39:14.861Z,66.60
2022-07-27T11:42:08.021Z,63.20
2022-07-27T11:44:30.186Z,65.40
2022-07-27T11:47:01.724Z,65.50
2022-07-27T11:49:31.150Z,63.60
2022-07-27T11:52:03.856Z,62.90
2022-07-27T11:54:38.658Z,62.40
2022-07-27T11:57:13.728Z,63.40
2022-07-27T11:59:41.875Z,62.90
2022-07-27T12:02:21.979Z,66.40
2022-07-27T12:04:51.010Z,64.70
2022-07-27T12:07:28.440Z,65.60
2022-07-27T12:10:01.990Z,67.90
2022-07-27T12:12:30.647Z,65.90
2022-07-27T12:15:44.140Z,70.00
2022-07-27T12:18:02.870Z,68.20
2022-07-27T12:20:34.143Z,67.10
2022-07-27T12:23:05.617Z,69.80
2022-07-27T12:25:33.529Z,70.60
2022-07-27T12:28:04.341Z,70.70
2022-07-27T12:30:36.433Z,70.30
2022-07-27T12:33:05.076Z,68.50
2022-07-27T12:35:47.310Z,70.50
2022-07-27T12:38:14.402Z,69.30
2022-07-27T12:40:50.083Z,67.30
2022-07-27T12:43:19.364Z,69.70
2022-07-27T12:45:48.138Z,69.80
2022-07-27T12:48:18.002Z,71.00
2022-07-27T12:51:04.854Z,69.30
2022-07-27T12:53:32.627Z,71.30
2022-07-27T12:56:02.740Z,71.20
2022-07-27T12:58:29.487Z,71.50
2022-07-27T13:00:56.512Z,72.10
2022-07-27T13:03:23.450Z,73.60
2022-07-27T13:05:50.112Z,72.90
2022-07-27T13:08:17.173Z,74.80
2022-07-27T13:10:44.722Z,73.40
2022-07-27T13:13:12.042Z,72.80
2022-07-27T13:15:38.737Z,73.90
2022-07-27T13:18:05.809Z,76.10
2022-07-27T13:20:35.159Z,77.50
2022-07-27T13:23:01.891Z,79.30
2022-07-27T13:25:28.600Z,80.80
2022-07-27T13:27:55.340Z,83.00
2022-07-27T13:30:22.087Z,82.50
2022-07-27T13:32:48.666Z,83.30
2022-07-27T13:35:16.878Z,83.30
2022-07-27T13:37:44.710Z,83.80
2022-07-27T13:40:11.883Z,84.90
2022-07-27T13:42:38.742Z,85.20
2022-07-27T13:45:10.457Z,85.00
2022-07-27T13:47:39.439Z,82.80
2022-07-27T13:50:16.781Z,82.20
2022-07-27T13:52:45.071Z,81.40
2022-07-27T13:55:13.071Z,81.10
2022-07-27T13:57:39.661Z,78.50
2022-07-27T14:00:07.040Z,81.60
2022-07-27T14:02:33.680Z,80.60
2022-07-27T14:05:00.306Z,80.20
2022-07-27T14:07:29.281Z,79.60
2022-07-27T14:10:14.338Z,78.60
2022-07-27T14:12:40.999Z,78.90
2022-07-27T14:15:08.242Z,80.90
2022-07-27T14:17:34.966Z,82.20
2022-07-27T14:20:01.655Z,84.00
2022-07-27T14:22:28.526Z,83.10
2022-07-27T14:24:55.188Z,83.50
2022-07-27T14:27:21.989Z,85.00
2022-07-27T14:29:48.596Z,85.10
2022-07-27T14:32:15.277Z,86.60
2022-07-27T14:34:44.410Z,86.10
2022-07-27T14:37:11.221Z,84.80
2022-07-27T14:39:39.315Z,84.20
2022-07-27T14:42:06.225Z,83.90
2022-07-27T14:44:34.759Z,83.70
2022-07-27T14:47:01.838Z,83.60
2022-07-27T14:49:28.713Z,85.90
2022-07-27T14:51:55.467Z,87.00
2022-07-27T14:54:22.181Z,84.00
2022-07-27T14:56:49.102Z,82.50
2022-07-27T14:59:16.273Z,81.80
2022-07-27T15:01:43.335Z,81.60
2022-07-27T15:04:10.092Z,82.70
2022-07-27T15:06:39.074Z,82.60
2022-07-27T15:09:07.808Z,84.20
2022-07-27T15:11:34.840Z,82.90
2022-07-27T15:14:01.589Z,84.10
2022-07-27T15:16:32.352Z,82.70
2022-07-27T15:18:59.474Z,81.60
2022-07-27T15:21:26.776Z,81.10
2022-07-27T15:23:53.808Z,80.40
2022-07-27T15:26:20.592Z,81.10
2022-07-27T15:28:47.244Z,80.70
2022-07-27T15:31:14.351Z,82.20
2022-07-27T15:33:41.238Z,80.40
2022-07-27T15:36:07.966Z,80.90
2022-07-27T15:38:34.819Z,82.50
2022-07-27T15:41:01.806Z,82.60
2022-07-27T15:43:28.439Z,84.20
2022-07-27T15:45:55.042Z,85.60
2022-07-27T15:48:23.279Z,85.40
2022-07-27T15:50:52.663Z,86.70
2022-07-27T15:53:20.995Z,86.00
2022-07-27T15:55:48.357Z,85.60
2022-07-27T15:58:19.150Z,85.50
2022-07-27T16:00:48.042Z,85.30
2022-07-27T16:03:14.834Z,86.00
2022-07-27T16:05:43.049Z,86.50
2022-07-27T16:08:10.330Z,87.20
2022-07-27T16:10:41.295Z,86.90
2022-07-27T16:13:09.370Z,86.70
2022-07-27T16:15:55.902Z,87.60
2022-07-27T16:18:22.942Z,86.80
2022-07-27T16:20:49.914Z,88.20
2022-07-27T16:23:20.989Z,87.60
2022-07-27T16:26:04.603Z,87.60
2022-07-27T16:28:33.287Z,87.10
2022-07-27T16:30:59.984Z,87.20
2022-07-27T16:33:26.778Z,88.40
2022-07-27T16:35:53.400Z,88.30
2022-07-27T16:38:19.999Z,88.10
2022-07-27T16:40:46.597Z,88.10
2022-07-27T16:43:13.250Z,88.70
2022-07-27T16:45:39.870Z,87.50
2022-07-27T16:48:06.658Z,88.70
2022-07-27T16:50:33.385Z,88.10
2022-07-27T16:53:01.293Z,88.40
2022-07-27T16:55:28.251Z,89.40
2022-07-27T16:57:55.764Z,88.70
2022-07-27T17:00:22.844Z,89.20
2022-07-27T17:02:49.582Z,89.80
2022-07-27T17:05:16.193Z,90.30
2022-07-27T17:07:42.911Z,90.20
2022-07-27T17:10:10.018Z,90.00
2022-07-27T17:12:39.052Z,90.20
2022-07-27T17:15:07.498Z,90.30
2022-07-27T17:17:34.515Z,90.50
2022-07-27T17:20:01.421Z,90.50
2022-07-27T17:22:28.054Z,90.50
2022-07-27T17:24:54.644Z,91.20
2022-07-27T17:27:21.833Z,91.30
2022-07-27T17:29:48.592Z,91.60
2022-07-27T17:32:15.238Z,91.80
2022-07-27T17:34:41.896Z,91.90
2022-07-27T17:37:08.565Z,92.40
2022-07-27T17:39:35.464Z,92.70
2022-07-27T17:42:02.245Z,93.00
2022-07-27T17:44:29.137Z,93.50
2022-07-27T17:46:55.960Z,93.60
2022-07-27T17:49:22.685Z,93.90
2022-07-27T17:51:49.395Z,94.10
2022-07-27T17:54:16.040Z,94.20
2022-07-27T17:56:42.620Z,94.60
2022-07-27T17:59:35.199Z,94.80
2022-07-27T18:01:56.672Z,95.30
2022-07-27T18:04:23.428Z,95.90
2022-07-27T18:06:50.265Z,95.90
2022-07-27T18:09:17.306Z,96.10
2022-07-27T18:11:44.440Z,96.40
2022-07-27T18:14:11.106Z,96.60
2022-07-27T18:16:40.802Z,97.00
2022-07-27T18:19:08.239Z,96.80
2022-07-27T18:21:36.046Z,97.40
2022-07-27T18:24:04.098Z,97.70
2022-07-27T18:26:31.102Z,98.40
2022-07-27T18:28:57.745Z,98.90
2022-07-27T18:31:24.553Z,99.00
2022-07-27T18:33:54.215Z,99.30
2022-07-27T18:36:21.201Z,99.40
2022-07-27T18:38:49.642Z,99.90
2022-07-27T18:41:17.562Z,99.90
2022-07-27T18:43:50.939Z,99.90
2022-07-27T18:46:24.052Z,99.90
2022-07-27T18:48:50.816Z,99.90
2022-07-27T18:51:17.914Z,99.90
2022-07-27T18:53:44.918Z,99.90
2022-07-27T18:56:12.185Z,99.90
2022-07-27T18:58:40.480Z,99.90
2022-07-27T19:01:09.271Z,99.90
2022-07-27T19:03:37.106Z,99.90
2022-07-27T19:06:05.990Z,99.90
2022-07-27T19:08:32.625Z,99.90
2022-07-27T19:10:59.282Z,99.90
2022-07-27T19:13:25.955Z,99.90
2022-07-27T19:15:52.564Z,99.90
2022-07-27T19:18:19.233Z,99.90
2022-07-27T19:20:46.733Z,99.90
2022-07-27T19:23:13.446Z,99.90
2022-07-27T19:25:40.214Z,99.90
2022-07-27T19:28:06.959Z,99.90
2022-07-27T19:30:33.680Z,99.90
2022-07-27T19:33:00.489Z,99.90
2022-07-27T19:35:27.272Z,99.90
2022-07-27T19:37:53.860Z,99.90
2022-07-27T19:43:09.074Z,99.90
2022-07-27T19:45:36.404Z,99.90
2022-07-27T19:48:05.339Z,99.90
2022-07-27T19:50:32.179Z,99.90
2022-07-27T19:52:58.762Z,99.90
2022-07-27T19:55:25.442Z,99.90
2022-07-27T19:57:52.613Z,99.90
2022-07-27T20:00:19.297Z,99.90
2022-07-27T20:02:47.648Z,99.90
2022-07-27T20:05:14.584Z,99.90
2022-07-27T20:07:41.524Z,99.90
2022-07-27T20:10:08.626Z,99.90
2022-07-27T20:12:35.321Z,99.90
2022-07-27T20:15:02.272Z,99.90
2022-07-27T20:17:30.318Z,99.90
2022-07-27T20:19:56.934Z,99.90
2022-07-27T20:22:23.505Z,99.90
2022-07-27T20:24:51.242Z,99.90
2022-07-27T20:27:18.051Z,99.90
2022-07-27T20:29:44.637Z,99.90
2022-07-27T20:32:12.638Z,99.90
2022-07-27T20:34:39.290Z,99.90
2022-07-27T20:37:06.595Z,99.90
2022-07-27T20:39:33.706Z,99.90
2022-07-27T20:42:00.293Z,99.90
2022-07-27T20:44:27.705Z,99.90
2022-07-27T20:46:54.285Z,99.90
2022-07-27T20:49:21.069Z,99.90
2022-07-27T20:51:47.714Z,99.90
2022-07-27T20:54:14.569Z,99.90
2022-07-27T20:56:41.193Z,99.90
2022-07-27T20:59:16.251Z,99.90
2022-07-27T21:01:44.145Z,99.90
2022-07-27T21:04:10.869Z,99.90
2022-07-27T21:06:37.847Z,99.90
2022-07-27T21:09:04.950Z,99.90
2022-07-27T21:11:31.533Z,99.90
2022-07-27T21:13:58.114Z,99.90
2022-07-27T21:16:24.759Z,99.90
2022-07-27T21:18:51.355Z,99.90
2022-07-27T21:21:17.989Z,99.90
2022-07-27T21:24:03.150Z,99.90
2022-07-27T21:26:31.969Z,99.90
2022-07-27T21:28:58.557Z,99.90
2022-07-27T21:31:25.303Z,99.90
2022-07-27T21:33:52.029Z,99.90
2022-07-27T21:36:18.705Z,99.90
2022-07-27T21:38:45.292Z,99.90
2022-07-27T21:41:13.905Z,99.90
2022-07-27T21:43:40.498Z,99.90
2022-07-27T21:46:07.304Z,99.90
2022-07-27T21:48:34.027Z,99.90
2022-07-27T21:51:00.746Z,99.90
2022-07-27T21:53:27.426Z,99.90
2022-07-27T21:55:54.022Z,99.90
2022-07-27T21:58:20.793Z,99.90
2022-07-27T22:00:47.524Z,99.90
2022-07-27T22:03:14.674Z,99.90
2022-07-27T22:05:41.378Z,99.90
2022-07-27T22:08:07.998Z,99.90
2022-07-27T22:10:34.606Z,99.90
2022-07-27T22:13:01.398Z,99.90
2022-07-27T22:15:28.455Z,99.90
2022-07-27T22:17:55.045Z,99.90
2022-07-27T22:20:22.994Z,99.90
2022-07-27T22:22:50.089Z,99.90
2022-07-27T22:25:17.942Z,99.90
2022-07-27T22:27:44.838Z,99.90
2022-07-27T22:30:11.640Z,99.90
2022-07-27T22:32:38.374Z,99.90
2022-07-27T22:35:05.434Z,99.90
2022-07-27T22:37:32.070Z,99.90
2022-07-27T22:39:59.009Z,99.90
2022-07-27T22:42:25.571Z,99.90
2022-07-27T22:44:52.137Z,99.90
2022-07-27T22:47:18.715Z,99.90
2022-07-27T22:49:45.423Z,99.90
2022-07-27T22:52:12.315Z,99.90
2022-07-27T22:54:39.415Z,99.90
2022-07-27T22:57:06.812Z,99.90
2022-07-27T22:59:34.621Z,99.90
2022-07-27T23:02:01.701Z,99.90
2022-07-27T23:04:28.381Z,99.90
2022-07-27T23:06:55.405Z,99.90
2022-07-27T23:09:23.086Z,99.90
2022-07-27T23:11:50.492Z,99.90
2022-07-27T23:14:17.734Z,99.90
2022-07-27T23:16:45.119Z,99.90
2022-07-27T23:19:12.043Z,99.90
2022-07-27T23:21:39.535Z,99.90
2022-07-27T23:24:08.674Z,99.90
2022-07-27T23:26:36.618Z,99.90
2022-07-27T23:29:03.402Z,99.90
2022-07-27T23:31:30.067Z,99.90
2022-07-27T23:33:56.735Z,99.90
2022-07-27T23:36:23.437Z,99.90
2022-07-27T23:38:50.280Z,99.90
2022-07-27T23:41:17.021Z,99.90
2022-07-27T23:43:43.915Z,99.90
2022-07-27T23:46:10.798Z,99.90
2022-07-27T23:48:37.520Z,99.90
2022-07-27T23:51:04.253Z,99.90
2022-07-27T23:53:31.027Z,99.90
2022-07-27T23:55:58.257Z,99.90
2022-07-27T23:58:25.055Z,99.90
